Norwegian Epic — C6XP7 — position and weather

sailwx.info

Track history (hours):
 
Tides and Currents Weather Stations Pressure Air Temp Water Temp Dewpoint Dewpoint Depression Visibility Wind Speed Wind Dir Waves Ship Positions

Norwegian Epic

Last reported at 2014-Aug-27 00:00 UTC. Time now 2014-Aug-27 11:10 UTC.
Position N 41°24' E 012°12'.

Length 329 m; draft 9 m.

Type: Passenger vessel. MMSI: 311018500.

Wind from 150 at 16 knots

Waves 1.0 meters (3 feet), 1 second period

Barometer 1014.0 mb
Air temperature 24.0 ° C
Dewpoint 21.1 ° C
Water temperature 24.0 ° C

Date/timePositionNaut miles runAvg speedWind from/ knotsBaromVisibWave heightAir tempDewpointWater temp
2014-Aug-27 00:00N 41°24' E 012°12'6416.5 150 / 161014.0 1.024.021.124.0
2014-Aug-26 20:06N 40°41' E 013°16'1018.4
2014-Aug-26 19:33N 40°40' E 013°29'1918.7
2014-Aug-26 18:33N 40°38' E 013°53'6 9.9
2014-Aug-26 18:00N 40°36' E 014°00'19 6.6 240 / 111014.010.8 25.0 23.0
2014-Aug-26 15:11N 40°50' E 014°16'318 9.6
2014-Aug-25 06:08N 41°17' E 007°15'538.4
2014-Aug-25 06:00N 41°12' E 007°12'1618.2 350 / 71017.010.8 23.0 23.0
2014-Aug-25 05:07N 41°17' E 006°52'1117.6
2014-Aug-25 04:28N 41°17' E 006°37'3617.7
2014-Aug-25 02:25N 41°16' E 005°48'1517.6
2014-Aug-25 01:32N 41°16' E 005°28'2017.8
2014-Aug-25 00:26N 41°16' E 005°01'1125.0
2014-Aug-25 00:00N 41°12' E 004°48'715.3 270 / 171018.0 2.024.018.023.5
2014-Aug-24 23:33N 41°16' E 004°41'1817.5
2014-Aug-24 22:32N 41°16' E 004°18'1717.0
2014-Aug-24 21:31N 41°16' E 003°54'1717.9
2014-Aug-24 20:33N 41°16' E 003°32'1716.2
2014-Aug-24 19:30N 41°16' E 003°09'1616.7
2014-Aug-24 18:33N 41°16' E 002°48'1017.2
2014-Aug-24 18:00N 41°12' E 002°36'919.7 220 / 151017.010.8 24.0 23.0
2014-Aug-24 17:33N 41°16' E 002°26'1212.5
2014-Aug-24 16:33N 41°20' E 002°10'2 0.2
2014-Aug-24 07:14N 41°22' E 002°11'5 0.8
2014-Aug-24 01:25N 41°17' E 002°11'1416.6
2014-Aug-24 00:33N 41°03' E 002°11'1717.3
2014-Aug-23 23:33N 40°45' E 002°11'1817.6
2014-Aug-23 22:33N 40°28' E 002°12'1919.3
2014-Aug-23 21:33N 40°08' E 002°12'1919.1
2014-Aug-23 20:33N 39°49' E 002°13'1818.4
2014-Aug-23 19:34N 39°31' E 002°16'40 3.0
2014-Aug-23 06:00N 40°06' E 002°42'5923.8 020 / 141016.0 5.4 22.0 22.0
2014-Aug-23 03:32N 40°46' E 003°38'2222.9
2014-Aug-23 02:33N 41°02' E 003°59'2322.4
2014-Aug-23 01:33N 41°17' E 004°21'2222.3
2014-Aug-23 00:33N 41°32' E 004°43'2222.5
2014-Aug-22 23:33N 41°49' E 005°03'2322.4
2014-Aug-22 22:33N 42°04' E 005°25'2221.9
2014-Aug-22 21:33N 42°20' E 005°46'2120.9
2014-Aug-22 20:33N 42°34' E 006°06'2221.7
2014-Aug-22 19:33N 42°49' E 006°27'2221.6
2014-Aug-22 18:33N 43°05' E 006°47'2121.0
2014-Aug-22 17:33N 43°25' E 006°59'8 7.6
2014-Aug-22 16:32N 43°32' E 007°01'0 0.1
2014-Aug-22 15:33N 43°32' E 007°01'0 0.0
2014-Aug-22 14:31N 43°32' E 007°01'0 0.0
2014-Aug-22 13:28N 43°32' E 007°01'0 0.0
2014-Aug-22 12:29N 43°32' E 007°01'0 0.0
2014-Aug-22 11:33N 43°32' E 007°01'0 0.1
2014-Aug-22 10:30N 43°32' E 007°01'0 0.0
2014-Aug-22 09:25N 43°32' E 007°01'0 0.0
2014-Aug-22 08:32N 43°32' E 007°01'0 0.0
2014-Aug-22 07:26N 43°32' E 007°01'0 0.0
2014-Aug-22 06:33N 43°32' E 007°01'0 0.0
2014-Aug-22 05:28N 43°32' E 007°01'5 5.2
2014-Aug-22 04:34N 43°28' E 007°04'1110.8
2014-Aug-22 03:34N 43°28' E 007°19'1211.7
2014-Aug-22 02:34N 43°29' E 007°35'1312.6
2014-Aug-22 01:33N 43°29' E 007°52'1212.6
2014-Aug-22 00:33N 43°29' E 008°10'814.5
2014-Aug-22 00:00N 43°24' E 008°18'920.4 090 / 121013.0 1.521.316.220.7
2014-Aug-21 23:33N 43°30' E 008°27'1515.3
2014-Aug-21 22:33N 43°31' E 008°48'1414.5
2014-Aug-21 21:33N 43°32' E 009°08'1414.2
2014-Aug-21 20:33N 43°31' E 009°28'1414.0
2014-Aug-21 19:34N 43°32' E 009°47'1212.0
2014-Aug-21 18:34N 43°30' E 010°03'10 9.8
2014-Aug-21 17:34N 43°32' E 010°17'1 1.3
2014-Aug-21 16:31N 43°33' E 010°18'0 0.0
2014-Aug-21 15:28N 43°33' E 010°18'0 0.0
2014-Aug-21 14:32N 43°33' E 010°18'0 0.0
2014-Aug-21 13:33N 43°33' E 010°18'0 0.0
2014-Aug-21 12:33N 43°33' E 010°18'0 0.0
2014-Aug-21 11:31N 43°33' E 010°18'0 0.0
2014-Aug-21 10:32N 43°33' E 010°18'0 0.0
2014-Aug-21 09:32N 43°33' E 010°18'0 0.0
2014-Aug-21 08:33N 43°33' E 010°18'0 0.0
2014-Aug-21 07:31N 43°33' E 010°18'0 0.0
2014-Aug-21 06:31N 43°33' E 010°18'0 0.0
2014-Aug-21 05:32N 43°33' E 010°18'0 0.4
2014-Aug-21 04:33N 43°33' E 010°17'9 8.6
2014-Aug-21 03:33N 43°26' E 010°11'1212.1
2014-Aug-21 02:33N 43°14' E 010°07'1212.3
2014-Aug-21 01:33N 43°02' E 010°02'1514.9
2014-Aug-21 00:33N 42°48' E 009°56'1221.2
2014-Aug-21 00:00N 42°36' E 009°54'3413.3 190 / 161013.0 1.024.018.024.0
2014-Aug-20 21:26N 42°10' E 010°23'157 6.3
2014-Aug-19 20:33N 40°41' E 013°16'1716.7
2014-Aug-19 19:33N 40°39' E 013°38'3110.1
2014-Aug-19 16:32N 40°50' E 014°16'0 0.0
2014-Aug-19 15:14N 40°50' E 014°16'0 0.0
2014-Aug-19 14:27N 40°50' E 014°16'0 0.0
2014-Aug-19 13:31N 40°50' E 014°16'0 0.0
2014-Aug-19 12:28N 40°50' E 014°16'0 0.0
2014-Aug-19 10:15N 40°50' E 014°16'0 0.0
2014-Aug-19 09:33N 40°50' E 014°16'0 0.0
2014-Aug-19 08:25N 40°50' E 014°16'0 0.0
2014-Aug-19 07:32N 40°50' E 014°16'24 4.4
2014-Aug-19 02:07N 40°38' E 013°49'2813.1
2014-Aug-19 00:00N 40°36' E 013°12'16415.0 270 / 131015.0 5.023.514.824.2
2014-Aug-18 13:04N 41°19' E 009°42'16916.9
2014-Aug-18 03:06N 41°16' E 005°57'1117.9
2014-Aug-18 02:28N 41°16' E 005°42'2317.7
2014-Aug-18 01:09N 41°16' E 005°11'1817.5
2014-Aug-18 00:09N 41°16' E 004°48'9416.8
2014-Aug-17 18:33N 41°16' E 002°43'1118.7
2014-Aug-17 18:00N 41°12' E 002°30'920.0 270 / 371015.010.8 1.523.020.126.0
2014-Aug-17 17:33N 41°16' E 002°19'9 8.7
2014-Aug-17 16:32N 41°22' E 002°11'0 0.0
2014-Aug-17 02:20N 41°22' E 002°11'5 5.4
2014-Aug-17 01:20N 41°16' E 002°11'1317.3
2014-Aug-17 00:33N 41°03' E 002°11'  
Track history (hours):
 
Tides and Currents Weather Stations Pressure Air Temp Water Temp Dewpoint Dewpoint Depression Visibility Wind Speed Wind Dir Waves Ship Positions

Norwegian Epic

Last reported at 2014-Aug-27 00:00 UTC. Time now 2014-Aug-27 11:10 UTC.
Position N 41°24' E 012°12'.

Length 329 m; draft 9 m.

Type: Passenger vessel. MMSI: 311018500.

Wind from 150 at 16 knots

Waves 1.0 meters (3 feet), 1 second period

Barometer 1014.0 mb
Air temperature 24.0 ° C
Dewpoint 21.1 ° C
Water temperature 24.0 ° C

Date/timePositionNaut miles runAvg speedWind from/ knotsBaromVisibWave heightAir tempDewpointWater temp
2014-Aug-27 00:00N 41°24' E 012°12'6416.5 150 / 161014.0 1.024.021.124.0
2014-Aug-26 20:06N 40°41' E 013°16'1018.4
2014-Aug-26 19:33N 40°40' E 013°29'1918.7
2014-Aug-26 18:33N 40°38' E 013°53'6 9.9
2014-Aug-26 18:00N 40°36' E 014°00'19 6.6 240 / 111014.010.8 25.0 23.0
2014-Aug-26 15:11N 40°50' E 014°16'318 9.6
2014-Aug-25 06:08N 41°17' E 007°15'538.4
2014-Aug-25 06:00N 41°12' E 007°12'1618.2 350 / 71017.010.8 23.0 23.0
2014-Aug-25 05:07N 41°17' E 006°52'1117.6
2014-Aug-25 04:28N 41°17' E 006°37'3617.7
2014-Aug-25 02:25N 41°16' E 005°48'1517.6
2014-Aug-25 01:32N 41°16' E 005°28'2017.8
2014-Aug-25 00:26N 41°16' E 005°01'1125.0
2014-Aug-25 00:00N 41°12' E 004°48'715.3 270 / 171018.0 2.024.018.023.5
2014-Aug-24 23:33N 41°16' E 004°41'1817.5
2014-Aug-24 22:32N 41°16' E 004°18'1717.0
2014-Aug-24 21:31N 41°16' E 003°54'1717.9
2014-Aug-24 20:33N 41°16' E 003°32'1716.2
2014-Aug-24 19:30N 41°16' E 003°09'1616.7
2014-Aug-24 18:33N 41°16' E 002°48'1017.2
2014-Aug-24 18:00N 41°12' E 002°36'919.7 220 / 151017.010.8 24.0 23.0
2014-Aug-24 17:33N 41°16' E 002°26'1212.5
2014-Aug-24 16:33N 41°20' E 002°10'2 0.2
2014-Aug-24 07:14N 41°22' E 002°11'5 0.8
2014-Aug-24 01:25N 41°17' E 002°11'1416.6
2014-Aug-24 00:33N 41°03' E 002°11'1717.3
2014-Aug-23 23:33N 40°45' E 002°11'1817.6
2014-Aug-23 22:33N 40°28' E 002°12'1919.3
2014-Aug-23 21:33N 40°08' E 002°12'1919.1
2014-Aug-23 20:33N 39°49' E 002°13'1818.4
2014-Aug-23 19:34N 39°31' E 002°16'40 3.0
2014-Aug-23 06:00N 40°06' E 002°42'5923.8 020 / 141016.0 5.4 22.0 22.0
2014-Aug-23 03:32N 40°46' E 003°38'2222.9
2014-Aug-23 02:33N 41°02' E 003°59'2322.4
2014-Aug-23 01:33N 41°17' E 004°21'2222.3
2014-Aug-23 00:33N 41°32' E 004°43'2222.5
2014-Aug-22 23:33N 41°49' E 005°03'2322.4
2014-Aug-22 22:33N 42°04' E 005°25'2221.9
2014-Aug-22 21:33N 42°20' E 005°46'2120.9
2014-Aug-22 20:33N 42°34' E 006°06'2221.7
2014-Aug-22 19:33N 42°49' E 006°27'2221.6
2014-Aug-22 18:33N 43°05' E 006°47'2121.0
2014-Aug-22 17:33N 43°25' E 006°59'8 7.6
2014-Aug-22 16:32N 43°32' E 007°01'0 0.1
2014-Aug-22 15:33N 43°32' E 007°01'0 0.0
2014-Aug-22 14:31N 43°32' E 007°01'0 0.0
2014-Aug-22 13:28N 43°32' E 007°01'0 0.0
2014-Aug-22 12:29N 43°32' E 007°01'0 0.0
2014-Aug-22 11:33N 43°32' E 007°01'0 0.1
2014-Aug-22 10:30N 43°32' E 007°01'0 0.0
2014-Aug-22 09:25N 43°32' E 007°01'0 0.0
2014-Aug-22 08:32N 43°32' E 007°01'0 0.0
2014-Aug-22 07:26N 43°32' E 007°01'0 0.0
2014-Aug-22 06:33N 43°32' E 007°01'0 0.0
2014-Aug-22 05:28N 43°32' E 007°01'5 5.2
2014-Aug-22 04:34N 43°28' E 007°04'1110.8
2014-Aug-22 03:34N 43°28' E 007°19'1211.7
2014-Aug-22 02:34N 43°29' E 007°35'1312.6
2014-Aug-22 01:33N 43°29' E 007°52'1212.6
2014-Aug-22 00:33N 43°29' E 008°10'814.5
2014-Aug-22 00:00N 43°24' E 008°18'920.4 090 / 121013.0 1.521.316.220.7
2014-Aug-21 23:33N 43°30' E 008°27'1515.3
2014-Aug-21 22:33N 43°31' E 008°48'1414.5
2014-Aug-21 21:33N 43°32' E 009°08'1414.2
2014-Aug-21 20:33N 43°31' E 009°28'1414.0
2014-Aug-21 19:34N 43°32' E 009°47'1212.0
2014-Aug-21 18:34N 43°30' E 010°03'10 9.8
2014-Aug-21 17:34N 43°32' E 010°17'1 1.3
2014-Aug-21 16:31N 43°33' E 010°18'0 0.0
2014-Aug-21 15:28N 43°33' E 010°18'0 0.0
2014-Aug-21 14:32N 43°33' E 010°18'0 0.0
2014-Aug-21 13:33N 43°33' E 010°18'0 0.0
2014-Aug-21 12:33N 43°33' E 010°18'0 0.0
2014-Aug-21 11:31N 43°33' E 010°18'0 0.0
2014-Aug-21 10:32N 43°33' E 010°18'0 0.0
2014-Aug-21 09:32N 43°33' E 010°18'0 0.0
2014-Aug-21 08:33N 43°33' E 010°18'0 0.0
2014-Aug-21 07:31N 43°33' E 010°18'0 0.0
2014-Aug-21 06:31N 43°33' E 010°18'0 0.0
2014-Aug-21 05:32N 43°33' E 010°18'0 0.4
2014-Aug-21 04:33N 43°33' E 010°17'9 8.6
2014-Aug-21 03:33N 43°26' E 010°11'1212.1
2014-Aug-21 02:33N 43°14' E 010°07'1212.3
2014-Aug-21 01:33N 43°02' E 010°02'1514.9
2014-Aug-21 00:33N 42°48' E 009°56'1221.2
2014-Aug-21 00:00N 42°36' E 009°54'3413.3 190 / 161013.0 1.024.018.024.0
2014-Aug-20 21:26N 42°10' E 010°23'157 6.3
2014-Aug-19 20:33N 40°41' E 013°16'1716.7
2014-Aug-19 19:33N 40°39' E 013°38'3110.1
2014-Aug-19 16:32N 40°50' E 014°16'0 0.0
2014-Aug-19 15:14N 40°50' E 014°16'0 0.0
2014-Aug-19 14:27N 40°50' E 014°16'0 0.0
2014-Aug-19 13:31N 40°50' E 014°16'0 0.0
2014-Aug-19 12:28N 40°50' E 014°16'0 0.0
2014-Aug-19 10:15N 40°50' E 014°16'0 0.0
2014-Aug-19 09:33N 40°50' E 014°16'0 0.0
2014-Aug-19 08:25N 40°50' E 014°16'0 0.0
2014-Aug-19 07:32N 40°50' E 014°16'24 4.4
2014-Aug-19 02:07N 40°38' E 013°49'2813.1
2014-Aug-19 00:00N 40°36' E 013°12'16415.0 270 / 131015.0 5.023.514.824.2
2014-Aug-18 13:04N 41°19' E 009°42'16916.9
2014-Aug-18 03:06N 41°16' E 005°57'1117.9
2014-Aug-18 02:28N 41°16' E 005°42'2317.7
2014-Aug-18 01:09N 41°16' E 005°11'1817.5
2014-Aug-18 00:09N 41°16' E 004°48'9416.8
2014-Aug-17 18:33N 41°16' E 002°43'1118.7
2014-Aug-17 18:00N 41°12' E 002°30'920.0 270 / 371015.010.8 1.523.020.126.0
2014-Aug-17 17:33N 41°16' E 002°19'9 8.7
2014-Aug-17 16:32N 41°22' E 002°11'0 0.0
2014-Aug-17 02:20N 41°22' E 002°11'5 5.4
2014-Aug-17 01:20N 41°16' E 002°11'1317.3
2014-Aug-17 00:33N 41°03' E 002°11'  

Dump ship's entire track history